sensor_id;sensor_type;location;lat;lon;timestamp;P1;durP1;ratioP1;P2;durP2;ratioP2
66012;SDS011;52783;50.502;8.190;2023-04-06T00:00:30;6.90;;;3.50;;
66012;SDS011;52783;50.502;8.190;2023-04-06T00:02:55;4.50;;;3.40;;
66012;SDS011;52783;50.502;8.190;2023-04-06T00:05:21;7.57;;;3.45;;
66012;SDS011;52783;50.502;8.190;2023-04-06T00:07:47;8.10;;;5.07;;
66012;SDS011;52783;50.502;8.190;2023-04-06T00:10:13;10.43;;;5.65;;
66012;SDS011;52783;50.502;8.190;2023-04-06T00:12:39;9.93;;;5.32;;
66012;SDS011;52783;50.502;8.190;2023-04-06T00:15:04;5.05;;;3.72;;
66012;SDS011;52783;50.502;8.190;2023-04-06T00:17:31;6.00;;;3.80;;
66012;SDS011;52783;50.502;8.190;2023-04-06T00:19:56;6.07;;;3.60;;
66012;SDS011;52783;50.502;8.190;2023-04-06T00:22:22;5.45;;;3.85;;
66012;SDS011;52783;50.502;8.190;2023-04-06T00:24:47;3.72;;;2.95;;
66012;SDS011;52783;50.502;8.190;2023-04-06T00:27:13;6.72;;;3.30;;
66012;SDS011;52783;50.502;8.190;2023-04-06T00:29:39;4.32;;;3.58;;
66012;SDS011;52783;50.502;8.190;2023-04-06T00:32:05;5.18;;;3.10;;
66012;SDS011;52783;50.502;8.190;2023-04-06T00:34:30;3.92;;;3.08;;
66012;SDS011;52783;50.502;8.190;2023-04-06T00:36:56;4.72;;;3.22;;
66012;SDS011;52783;50.502;8.190;2023-04-06T00:39:22;6.00;;;3.60;;
66012;SDS011;52783;50.502;8.190;2023-04-06T00:41:49;4.82;;;2.97;;
66012;SDS011;52783;50.502;8.190;2023-04-06T00:44:16;5.15;;;3.22;;
66012;SDS011;52783;50.502;8.190;2023-04-06T00:46:41;6.03;;;3.42;;
66012;SDS011;52783;50.502;8.190;2023-04-06T00:49:07;5.18;;;2.97;;
66012;SDS011;52783;50.502;8.190;2023-04-06T00:51:33;4.75;;;3.05;;
66012;SDS011;52783;50.502;8.190;2023-04-06T00:53:58;5.28;;;3.30;;
66012;SDS011;52783;50.502;8.190;2023-04-06T00:56:24;4.50;;;3.10;;
66012;SDS011;52783;50.502;8.190;2023-04-06T00:58:51;5.63;;;3.40;;
66012;SDS011;52783;50.502;8.190;2023-04-06T01:01:16;4.65;;;3.47;;
66012;SDS011;52783;50.502;8.190;2023-04-06T01:03:42;6.38;;;3.40;;
66012;SDS011;52783;50.502;8.190;2023-04-06T01:06:09;6.97;;;3.30;;
66012;SDS011;52783;50.502;8.190;2023-04-06T01:08:35;9.90;;;3.78;;
66012;SDS011;52783;50.502;8.190;2023-04-06T01:11:01;4.35;;;3.28;;
66012;SDS011;52783;50.502;8.190;2023-04-06T01:13:26;4.57;;;3.33;;
66012;SDS011;52783;50.502;8.190;2023-04-06T01:15:52;7.03;;;3.67;;
66012;SDS011;52783;50.502;8.190;2023-04-06T01:18:18;3.85;;;3.20;;
66012;SDS011;52783;50.502;8.190;2023-04-06T01:20:43;3.70;;;3.22;;
66012;SDS011;52783;50.502;8.190;2023-04-06T01:23:09;5.15;;;3.30;;
66012;SDS011;52783;50.502;8.190;2023-04-06T01:25:34;7.40;;;3.30;;
66012;SDS011;52783;50.502;8.190;2023-04-06T01:28:00;3.88;;;3.28;;
66012;SDS011;52783;50.502;8.190;2023-04-06T01:30:26;7.38;;;3.30;;
66012;SDS011;52783;50.502;8.190;2023-04-06T01:32:51;5.07;;;3.33;;
66012;SDS011;52783;50.502;8.190;2023-04-06T01:35:17;10.02;;;3.40;;
66012;SDS011;52783;50.502;8.190;2023-04-06T01:37:43;7.20;;;3.40;;
66012;SDS011;52783;50.502;8.190;2023-04-06T01:40:09;3.95;;;3.10;;
66012;SDS011;52783;50.502;8.190;2023-04-06T01:42:36;8.05;;;3.80;;
66012;SDS011;52783;50.502;8.190;2023-04-06T01:45:02;5.93;;;3.60;;
66012;SDS011;52783;50.502;8.190;2023-04-06T01:47:28;10.93;;;4.10;;
66012;SDS011;52783;50.502;8.190;2023-04-06T01:49:54;6.03;;;3.38;;
66012;SDS011;52783;50.502;8.190;2023-04-06T01:52:19;3.20;;;2.85;;
66012;SDS011;52783;50.502;8.190;2023-04-06T01:54:45;4.55;;;3.38;;
66012;SDS011;52783;50.502;8.190;2023-04-06T01:57:11;4.10;;;3.03;;
66012;SDS011;52783;50.502;8.190;2023-04-06T01:59:36;6.40;;;3.47;;
66012;SDS011;52783;50.502;8.190;2023-04-06T02:02:02;7.55;;;3.88;;
66012;SDS011;52783;50.502;8.190;2023-04-06T02:04:27;5.03;;;3.58;;
66012;SDS011;52783;50.502;8.190;2023-04-06T02:06:53;4.38;;;3.17;;
66012;SDS011;52783;50.502;8.190;2023-04-06T02:09:19;6.97;;;3.63;;
66012;SDS011;52783;50.502;8.190;2023-04-06T02:11:45;6.15;;;3.30;;
66012;SDS011;52783;50.502;8.190;2023-04-06T02:14:10;4.55;;;3.60;;
66012;SDS011;52783;50.502;8.190;2023-04-06T02:16:36;6.85;;;3.40;;
66012;SDS011;52783;50.502;8.190;2023-04-06T02:19:01;5.30;;;3.25;;
66012;SDS011;52783;50.502;8.190;2023-04-06T02:21:27;6.38;;;3.50;;
66012;SDS011;52783;50.502;8.190;2023-04-06T02:23:52;5.95;;;3.60;;
66012;SDS011;52783;50.502;8.190;2023-04-06T02:26:18;5.40;;;3.45;;
66012;SDS011;52783;50.502;8.190;2023-04-06T02:28:45;6.22;;;3.60;;
66012;SDS011;52783;50.502;8.190;2023-04-06T02:31:10;5.88;;;3.60;;
66012;SDS011;52783;50.502;8.190;2023-04-06T02:33:36;7.30;;;3.40;;
66012;SDS011;52783;50.502;8.190;2023-04-06T02:36:02;4.97;;;3.30;;
66012;SDS011;52783;50.502;8.190;2023-04-06T02:38:28;7.57;;;4.18;;
66012;SDS011;52783;50.502;8.190;2023-04-06T02:40:53;6.90;;;3.92;;
66012;SDS011;52783;50.502;8.190;2023-04-06T02:43:19;8.23;;;3.83;;
66012;SDS011;52783;50.502;8.190;2023-04-06T02:45:44;9.68;;;4.35;;
66012;SDS011;52783;50.502;8.190;2023-04-06T02:48:10;3.90;;;3.17;;
66012;SDS011;52783;50.502;8.190;2023-04-06T02:50:36;5.65;;;3.72;;
66012;SDS011;52783;50.502;8.190;2023-04-06T02:53:01;6.60;;;3.80;;
66012;SDS011;52783;50.502;8.190;2023-04-06T02:55:27;12.40;;;4.70;;
66012;SDS011;52783;50.502;8.190;2023-04-06T02:57:52;6.68;;;3.28;;
66012;SDS011;52783;50.502;8.190;2023-04-06T03:00:18;6.07;;;3.92;;
66012;SDS011;52783;50.502;8.190;2023-04-06T03:02:43;6.00;;;3.67;;
66012;SDS011;52783;50.502;8.190;2023-04-06T03:05:09;8.27;;;3.72;;
66012;SDS011;52783;50.502;8.190;2023-04-06T03:07:35;4.68;;;3.53;;
66012;SDS011;52783;50.502;8.190;2023-04-06T03:10:00;7.18;;;4.30;;
66012;SDS011;52783;50.502;8.190;2023-04-06T03:12:26;6.72;;;3.90;;
66012;SDS011;52783;50.502;8.190;2023-04-06T03:14:51;6.10;;;4.07;;
66012;SDS011;52783;50.502;8.190;2023-04-06T03:17:17;6.70;;;3.95;;
66012;SDS011;52783;50.502;8.190;2023-04-06T03:19:42;5.53;;;3.63;;
66012;SDS011;52783;50.502;8.190;2023-04-06T03:22:08;22.05;;;4.05;;
66012;SDS011;52783;50.502;8.190;2023-04-06T03:24:33;6.63;;;3.67;;
66012;SDS011;52783;50.502;8.190;2023-04-06T03:26:59;6.88;;;3.65;;
66012;SDS011;52783;50.502;8.190;2023-04-06T03:29:25;7.45;;;3.50;;
66012;SDS011;52783;50.502;8.190;2023-04-06T03:31:50;8.50;;;4.20;;
66012;SDS011;52783;50.502;8.190;2023-04-06T03:34:16;7.30;;;4.32;;
66012;SDS011;52783;50.502;8.190;2023-04-06T03:36:41;6.88;;;4.05;;
66012;SDS011;52783;50.502;8.190;2023-04-06T03:39:07;6.35;;;3.67;;
66012;SDS011;52783;50.502;8.190;2023-04-06T03:41:32;8.60;;;4.18;;
66012;SDS011;52783;50.502;8.190;2023-04-06T03:43:58;8.38;;;4.07;;
66012;SDS011;52783;50.502;8.190;2023-04-06T03:46:23;7.60;;;4.18;;
66012;SDS011;52783;50.502;8.190;2023-04-06T03:48:49;4.20;;;3.20;;
66012;SDS011;52783;50.502;8.190;2023-04-06T03:51:15;6.35;;;3.97;;
66012;SDS011;52783;50.502;8.190;2023-04-06T03:53:40;5.93;;;4.10;;
66012;SDS011;52783;50.502;8.190;2023-04-06T03:56:06;7.68;;;3.63;;
66012;SDS011;52783;50.502;8.190;2023-04-06T03:58:31;7.72;;;4.00;;
66012;SDS011;52783;50.502;8.190;2023-04-06T04:00:57;5.57;;;3.92;;
66012;SDS011;52783;50.502;8.190;2023-04-06T04:03:22;9.85;;;4.28;;
66012;SDS011;52783;50.502;8.190;2023-04-06T04:05:52;6.15;;;4.05;;
66012;SDS011;52783;50.502;8.190;2023-04-06T04:08:18;5.50;;;3.95;;
66012;SDS011;52783;50.502;8.190;2023-04-06T04:10:43;7.50;;;4.03;;
66012;SDS011;52783;50.502;8.190;2023-04-06T04:13:09;7.55;;;4.22;;
66012;SDS011;52783;50.502;8.190;2023-04-06T04:15:34;8.38;;;3.25;;
66012;SDS011;52783;50.502;8.190;2023-04-06T04:18:00;6.75;;;4.05;;
66012;SDS011;52783;50.502;8.190;2023-04-06T04:20:25;6.35;;;3.97;;
66012;SDS011;52783;50.502;8.190;2023-04-06T04:22:51;7.95;;;3.55;;
66012;SDS011;52783;50.502;8.190;2023-04-06T04:25:16;7.75;;;3.97;;
66012;SDS011;52783;50.502;8.190;2023-04-06T04:27:42;3.83;;;3.10;;
66012;SDS011;52783;50.502;8.190;2023-04-06T04:30:07;7.18;;;4.10;;
66012;SDS011;52783;50.502;8.190;2023-04-06T04:32:33;7.15;;;4.43;;
66012;SDS011;52783;50.502;8.190;2023-04-06T04:34:59;9.48;;;4.55;;
66012;SDS011;52783;50.502;8.190;2023-04-06T04:37:24;7.75;;;4.65;;
66012;SDS011;52783;50.502;8.190;2023-04-06T04:39:50;7.15;;;4.25;;
66012;SDS011;52783;50.502;8.190;2023-04-06T04:42:15;18.58;;;8.65;;
66012;SDS011;52783;50.502;8.190;2023-04-06T04:44:41;17.27;;;5.60;;
66012;SDS011;52783;50.502;8.190;2023-04-06T04:47:06;10.52;;;4.70;;
66012;SDS011;52783;50.502;8.190;2023-04-06T04:49:32;10.23;;;4.63;;
66012;SDS011;52783;50.502;8.190;2023-04-06T04:51:57;7.88;;;4.57;;
66012;SDS011;52783;50.502;8.190;2023-04-06T04:54:23;7.85;;;4.95;;
66012;SDS011;52783;50.502;8.190;2023-04-06T04:56:48;7.30;;;4.45;;
66012;SDS011;52783;50.502;8.190;2023-04-06T04:59:15;7.07;;;4.70;;
66012;SDS011;52783;50.502;8.190;2023-04-06T05:01:41;7.68;;;4.68;;
66012;SDS011;52783;50.502;8.190;2023-04-06T05:04:06;5.43;;;4.25;;
66012;SDS011;52783;50.502;8.190;2023-04-06T05:06:32;7.57;;;4.45;;
66012;SDS011;52783;50.502;8.190;2023-04-06T05:08:57;11.40;;;5.57;;
66012;SDS011;52783;50.502;8.190;2023-04-06T05:11:23;6.88;;;4.65;;
66012;SDS011;52783;50.502;8.190;2023-04-06T05:13:48;8.23;;;4.57;;
66012;SDS011;52783;50.502;8.190;2023-04-06T05:16:14;9.23;;;4.47;;
66012;SDS011;52783;50.502;8.190;2023-04-06T05:18:40;8.30;;;4.50;;
66012;SDS011;52783;50.502;8.190;2023-04-06T05:21:05;9.35;;;4.78;;
66012;SDS011;52783;50.502;8.190;2023-04-06T05:23:31;10.13;;;4.68;;
66012;SDS011;52783;50.502;8.190;2023-04-06T05:25:56;8.45;;;4.85;;
66012;SDS011;52783;50.502;8.190;2023-04-06T05:28:22;7.78;;;4.47;;
66012;SDS011;52783;50.502;8.190;2023-04-06T05:30:47;8.05;;;4.47;;
66012;SDS011;52783;50.502;8.190;2023-04-06T05:33:13;7.15;;;4.60;;
66012;SDS011;52783;50.502;8.190;2023-04-06T05:35:39;10.88;;;5.10;;
66012;SDS011;52783;50.502;8.190;2023-04-06T05:38:07;10.57;;;4.47;;
66012;SDS011;52783;50.502;8.190;2023-04-06T05:40:33;7.68;;;4.95;;
66012;SDS011;52783;50.502;8.190;2023-04-06T05:42:59;11.50;;;4.70;;
66012;SDS011;52783;50.502;8.190;2023-04-06T05:45:25;8.43;;;4.78;;
66012;SDS011;52783;50.502;8.190;2023-04-06T05:47:51;12.85;;;4.63;;
66012;SDS011;52783;50.502;8.190;2023-04-06T05:50:16;8.90;;;5.00;;
66012;SDS011;52783;50.502;8.190;2023-04-06T05:52:42;8.88;;;5.00;;
66012;SDS011;52783;50.502;8.190;2023-04-06T05:55:10;8.80;;;4.57;;
66012;SDS011;52783;50.502;8.190;2023-04-06T05:57:36;7.50;;;4.97;;
66012;SDS011;52783;50.502;8.190;2023-04-06T06:00:02;11.20;;;4.57;;
66012;SDS011;52783;50.502;8.190;2023-04-06T06:02:30;9.15;;;4.72;;
66012;SDS011;52783;50.502;8.190;2023-04-06T06:04:55;9.40;;;4.50;;
66012;SDS011;52783;50.502;8.190;2023-04-06T06:07:21;10.25;;;5.43;;
66012;SDS011;52783;50.502;8.190;2023-04-06T06:09:46;7.80;;;4.75;;
66012;SDS011;52783;50.502;8.190;2023-04-06T06:12:12;8.27;;;4.47;;
66012;SDS011;52783;50.502;8.190;2023-04-06T06:14:37;10.90;;;4.70;;
66012;SDS011;52783;50.502;8.190;2023-04-06T06:17:03;9.02;;;4.68;;
66012;SDS011;52783;50.502;8.190;2023-04-06T06:19:28;8.13;;;4.55;;
66012;SDS011;52783;50.502;8.190;2023-04-06T06:21:54;7.05;;;4.78;;
66012;SDS011;52783;50.502;8.190;2023-04-06T06:24:19;10.90;;;4.65;;
66012;SDS011;52783;50.502;8.190;2023-04-06T06:26:46;7.43;;;4.47;;
66012;SDS011;52783;50.502;8.190;2023-04-06T06:29:13;6.53;;;4.13;;
66012;SDS011;52783;50.502;8.190;2023-04-06T06:31:39;6.20;;;4.03;;
66012;SDS011;52783;50.502;8.190;2023-04-06T06:34:05;8.15;;;4.68;;
66012;SDS011;52783;50.502;8.190;2023-04-06T06:36:31;6.70;;;4.13;;
66012;SDS011;52783;50.502;8.190;2023-04-06T06:38:57;8.45;;;4.78;;
66012;SDS011;52783;50.502;8.190;2023-04-06T06:41:23;27.48;;;11.18;;
66012;SDS011;52783;50.502;8.190;2023-04-06T06:43:51;11.60;;;5.10;;
66012;SDS011;52783;50.502;8.190;2023-04-06T06:46:16;10.00;;;5.05;;
66012;SDS011;52783;50.502;8.190;2023-04-06T06:48:42;7.20;;;4.55;;
66012;SDS011;52783;50.502;8.190;2023-04-06T06:51:08;13.82;;;4.72;;
66012;SDS011;52783;50.502;8.190;2023-04-06T06:53:34;9.63;;;5.07;;
66012;SDS011;52783;50.502;8.190;2023-04-06T06:56:00;7.28;;;4.43;;
66012;SDS011;52783;50.502;8.190;2023-04-06T06:58:25;7.30;;;4.32;;
66012;SDS011;52783;50.502;8.190;2023-04-06T07:00:55;6.90;;;4.40;;
66012;SDS011;52783;50.502;8.190;2023-04-06T07:03:28;9.23;;;5.80;;
66012;SDS011;52783;50.502;8.190;2023-04-06T07:05:53;11.98;;;6.22;;
66012;SDS011;52783;50.502;8.190;2023-04-06T07:08:19;8.00;;;4.90;;
66012;SDS011;52783;50.502;8.190;2023-04-06T07:10:45;9.85;;;4.70;;
66012;SDS011;52783;50.502;8.190;2023-04-06T07:13:11;10.00;;;5.22;;
66012;SDS011;52783;50.502;8.190;2023-04-06T07:15:37;7.18;;;5.25;;
66012;SDS011;52783;50.502;8.190;2023-04-06T07:18:02;7.10;;;5.05;;
66012;SDS011;52783;50.502;8.190;2023-04-06T07:20:28;9.35;;;5.03;;
66012;SDS011;52783;50.502;8.190;2023-04-06T07:22:53;7.38;;;5.13;;
66012;SDS011;52783;50.502;8.190;2023-04-06T07:25:19;8.27;;;4.68;;
66012;SDS011;52783;50.502;8.190;2023-04-06T07:27:45;7.88;;;4.72;;
66012;SDS011;52783;50.502;8.190;2023-04-06T07:30:11;7.60;;;4.78;;
66012;SDS011;52783;50.502;8.190;2023-04-06T07:32:36;9.93;;;4.78;;
66012;SDS011;52783;50.502;8.190;2023-04-06T07:35:02;9.38;;;5.13;;
66012;SDS011;52783;50.502;8.190;2023-04-06T07:37:28;11.35;;;4.90;;
66012;SDS011;52783;50.502;8.190;2023-04-06T07:39:53;7.82;;;5.03;;
66012;SDS011;52783;50.502;8.190;2023-04-06T07:42:19;7.07;;;4.57;;
66012;SDS011;52783;50.502;8.190;2023-04-06T07:44:44;9.35;;;5.25;;
66012;SDS011;52783;50.502;8.190;2023-04-06T07:47:10;9.18;;;4.85;;
66012;SDS011;52783;50.502;8.190;2023-04-06T07:49:35;9.63;;;5.03;;
66012;SDS011;52783;50.502;8.190;2023-04-06T07:52:01;11.07;;;4.65;;
66012;SDS011;52783;50.502;8.190;2023-04-06T07:54:28;8.15;;;5.00;;
66012;SDS011;52783;50.502;8.190;2023-04-06T07:56:53;7.20;;;5.18;;
66012;SDS011;52783;50.502;8.190;2023-04-06T07:59:19;10.77;;;5.45;;
66012;SDS011;52783;50.502;8.190;2023-04-06T08:01:45;9.10;;;5.35;;
66012;SDS011;52783;50.502;8.190;2023-04-06T08:04:10;8.65;;;4.78;;
66012;SDS011;52783;50.502;8.190;2023-04-06T08:06:36;8.35;;;5.30;;
66012;SDS011;52783;50.502;8.190;2023-04-06T08:09:01;13.60;;;5.68;;
66012;SDS011;52783;50.502;8.190;2023-04-06T08:11:27;8.70;;;5.85;;
66012;SDS011;52783;50.502;8.190;2023-04-06T08:13:53;9.82;;;5.72;;
66012;SDS011;52783;50.502;8.190;2023-04-06T08:16:21;11.90;;;5.95;;
66012;SDS011;52783;50.502;8.190;2023-04-06T08:18:47;12.32;;;5.95;;
66012;SDS011;52783;50.502;8.190;2023-04-06T08:21:12;11.30;;;6.30;;
66012;SDS011;52783;50.502;8.190;2023-04-06T08:23:38;8.65;;;5.70;;
66012;SDS011;52783;50.502;8.190;2023-04-06T08:26:04;10.38;;;6.25;;
66012;SDS011;52783;50.502;8.190;2023-04-06T08:28:29;12.27;;;5.85;;
66012;SDS011;52783;50.502;8.190;2023-04-06T08:30:55;11.05;;;5.93;;
66012;SDS011;52783;50.502;8.190;2023-04-06T08:33:20;11.23;;;6.03;;
66012;SDS011;52783;50.502;8.190;2023-04-06T08:35:46;9.95;;;6.22;;
66012;SDS011;52783;50.502;8.190;2023-04-06T08:38:11;9.45;;;6.03;;
66012;SDS011;52783;50.502;8.190;2023-04-06T08:40:37;11.98;;;6.00;;
66012;SDS011;52783;50.502;8.190;2023-04-06T08:43:03;9.25;;;5.80;;
66012;SDS011;52783;50.502;8.190;2023-04-06T08:45:34;10.02;;;5.85;;
66012;SDS011;52783;50.502;8.190;2023-04-06T08:48:00;11.88;;;6.03;;
66012;SDS011;52783;50.502;8.190;2023-04-06T08:50:27;10.95;;;6.50;;
66012;SDS011;52783;50.502;8.190;2023-04-06T08:52:55;9.07;;;5.95;;
66012;SDS011;52783;50.502;8.190;2023-04-06T08:55:21;12.73;;;6.20;;
66012;SDS011;52783;50.502;8.190;2023-04-06T08:57:47;9.32;;;5.65;;
66012;SDS011;52783;50.502;8.190;2023-04-06T09:00:14;12.38;;;6.50;;
66012;SDS011;52783;50.502;8.190;2023-04-06T09:02:42;9.40;;;6.00;;
66012;SDS011;52783;50.502;8.190;2023-04-06T09:05:10;11.90;;;6.55;;
66012;SDS011;52783;50.502;8.190;2023-04-06T09:07:36;9.40;;;6.30;;
66012;SDS011;52783;50.502;8.190;2023-04-06T09:10:03;11.93;;;6.50;;
66012;SDS011;52783;50.502;8.190;2023-04-06T09:12:30;12.88;;;6.32;;
66012;SDS011;52783;50.502;8.190;2023-04-06T09:14:57;12.00;;;6.30;;
66012;SDS011;52783;50.502;8.190;2023-04-06T09:17:24;11.80;;;6.35;;
66012;SDS011;52783;50.502;8.190;2023-04-06T09:19:51;11.70;;;6.72;;
66012;SDS011;52783;50.502;8.190;2023-04-06T09:22:17;9.88;;;6.25;;
66012;SDS011;52783;50.502;8.190;2023-04-06T09:24:43;12.32;;;6.57;;
66012;SDS011;52783;50.502;8.190;2023-04-06T09:27:10;13.52;;;6.22;;
66012;SDS011;52783;50.502;8.190;2023-04-06T09:29:36;12.07;;;7.22;;
66012;SDS011;52783;50.502;8.190;2023-04-06T09:32:02;11.15;;;6.65;;
66012;SDS011;52783;50.502;8.190;2023-04-06T09:34:32;12.82;;;7.22;;
66012;SDS011;52783;50.502;8.190;2023-04-06T09:36:59;12.13;;;6.90;;
66012;SDS011;52783;50.502;8.190;2023-04-06T09:39:24;11.75;;;6.88;;
66012;SDS011;52783;50.502;8.190;2023-04-06T09:41:51;12.95;;;7.38;;
66012;SDS011;52783;50.502;8.190;2023-04-06T09:44:17;11.23;;;7.35;;
66012;SDS011;52783;50.502;8.190;2023-04-06T09:46:45;12.90;;;7.40;;
66012;SDS011;52783;50.502;8.190;2023-04-06T09:49:11;13.13;;;6.88;;
66012;SDS011;52783;50.502;8.190;2023-04-06T09:54:03;16.05;;;7.43;;
66012;SDS011;52783;50.502;8.190;2023-04-06T09:56:31;10.95;;;6.78;;
66012;SDS011;52783;50.502;8.190;2023-04-06T09:59:05;12.98;;;7.65;;
66012;SDS011;52783;50.502;8.190;2023-04-06T10:01:37;14.40;;;7.40;;
66012;SDS011;52783;50.502;8.190;2023-04-06T10:04:07;18.63;;;7.82;;
66012;SDS011;52783;50.502;8.190;2023-04-06T10:06:43;12.20;;;7.13;;
66012;SDS011;52783;50.502;8.190;2023-04-06T10:09:12;17.23;;;7.75;;
66012;SDS011;52783;50.502;8.190;2023-04-06T10:11:39;16.55;;;8.30;;
66012;SDS011;52783;50.502;8.190;2023-04-06T10:14:05;17.40;;;8.05;;
66012;SDS011;52783;50.502;8.190;2023-04-06T10:16:31;17.15;;;7.07;;
66012;SDS011;52783;50.502;8.190;2023-04-06T10:19:18;17.25;;;8.20;;
66012;SDS011;52783;50.502;8.190;2023-04-06T10:21:53;15.18;;;7.35;;
66012;SDS011;52783;50.502;8.190;2023-04-06T10:24:22;16.48;;;7.40;;
66012;SDS011;52783;50.502;8.190;2023-04-06T10:26:57;15.50;;;7.75;;
66012;SDS011;52783;50.502;8.190;2023-04-06T10:29:23;18.17;;;7.95;;
66012;SDS011;52783;50.502;8.190;2023-04-06T10:31:49;20.40;;;7.78;;
66012;SDS011;52783;50.502;8.190;2023-04-06T10:34:15;14.23;;;7.45;;
66012;SDS011;52783;50.502;8.190;2023-04-06T10:36:40;14.45;;;7.53;;
66012;SDS011;52783;50.502;8.190;2023-04-06T10:39:06;14.48;;;7.70;;
66012;SDS011;52783;50.502;8.190;2023-04-06T10:41:35;14.52;;;7.85;;
66012;SDS011;52783;50.502;8.190;2023-04-06T10:44:08;15.10;;;8.52;;
66012;SDS011;52783;50.502;8.190;2023-04-06T10:46:52;15.52;;;6.70;;
66012;SDS011;52783;50.502;8.190;2023-04-06T10:49:18;16.55;;;7.88;;
66012;SDS011;52783;50.502;8.190;2023-04-06T10:51:44;12.30;;;7.07;;
66012;SDS011;52783;50.502;8.190;2023-04-06T10:54:10;16.05;;;6.68;;
66012;SDS011;52783;50.502;8.190;2023-04-06T10:56:36;15.60;;;7.30;;
66012;SDS011;52783;50.502;8.190;2023-04-06T10:59:03;12.23;;;7.13;;
66012;SDS011;52783;50.502;8.190;2023-04-06T11:01:30;15.40;;;7.88;;
66012;SDS011;52783;50.502;8.190;2023-04-06T11:03:56;14.68;;;7.38;;
66012;SDS011;52783;50.502;8.190;2023-04-06T11:06:25;14.57;;;7.07;;
66012;SDS011;52783;50.502;8.190;2023-04-06T11:08:54;13.85;;;7.45;;
66012;SDS011;52783;50.502;8.190;2023-04-06T11:11:21;15.13;;;7.45;;
66012;SDS011;52783;50.502;8.190;2023-04-06T11:16:21;17.15;;;7.55;;
66012;SDS011;52783;50.502;8.190;2023-04-06T11:21:32;14.10;;;7.25;;
66012;SDS011;52783;50.502;8.190;2023-04-06T11:24:09;13.43;;;7.30;;
66012;SDS011;52783;50.502;8.190;2023-04-06T11:26:41;14.38;;;6.95;;
66012;SDS011;52783;50.502;8.190;2023-04-06T11:29:10;12.43;;;7.03;;
66012;SDS011;52783;50.502;8.190;2023-04-06T11:31:46;12.90;;;6.72;;
66012;SDS011;52783;50.502;8.190;2023-04-06T11:34:27;12.60;;;6.40;;
66012;SDS011;52783;50.502;8.190;2023-04-06T11:36:54;10.00;;;6.30;;
66012;SDS011;52783;50.502;8.190;2023-04-06T11:39:24;14.13;;;6.97;;
66012;SDS011;52783;50.502;8.190;2023-04-06T11:41:52;12.20;;;7.00;;
66012;SDS011;52783;50.502;8.190;2023-04-06T11:44:34;13.52;;;7.40;;
66012;SDS011;52783;50.502;8.190;2023-04-06T11:47:04;11.15;;;7.20;;
66012;SDS011;52783;50.502;8.190;2023-04-06T11:49:31;12.65;;;6.90;;
66012;SDS011;52783;50.502;8.190;2023-04-06T11:51:58;10.65;;;6.13;;
66012;SDS011;52783;50.502;8.190;2023-04-06T11:54:33;16.50;;;6.72;;
66012;SDS011;52783;50.502;8.190;2023-04-06T11:56:59;9.48;;;5.65;;
66012;SDS011;52783;50.502;8.190;2023-04-06T11:59:26;9.27;;;5.90;;
66012;SDS011;52783;50.502;8.190;2023-04-06T12:01:52;8.88;;;5.30;;
66012;SDS011;52783;50.502;8.190;2023-04-06T12:04:18;11.95;;;6.10;;
66012;SDS011;52783;50.502;8.190;2023-04-06T12:06:44;9.32;;;6.05;;
66012;SDS011;52783;50.502;8.190;2023-04-06T12:09:10;9.20;;;5.75;;
66012;SDS011;52783;50.502;8.190;2023-04-06T12:11:35;12.07;;;6.40;;
66012;SDS011;52783;50.502;8.190;2023-04-06T12:14:01;10.20;;;5.95;;
66012;SDS011;52783;50.502;8.190;2023-04-06T12:16:29;9.32;;;6.07;;
66012;SDS011;52783;50.502;8.190;2023-04-06T12:18:59;10.82;;;6.00;;
66012;SDS011;52783;50.502;8.190;2023-04-06T12:21:25;9.68;;;6.10;;
66012;SDS011;52783;50.502;8.190;2023-04-06T12:23:51;9.95;;;5.75;;
66012;SDS011;52783;50.502;8.190;2023-04-06T12:26:17;12.70;;;6.88;;
66012;SDS011;52783;50.502;8.190;2023-04-06T12:28:42;11.70;;;5.70;;
66012;SDS011;52783;50.502;8.190;2023-04-06T12:31:14;11.57;;;5.90;;
66012;SDS011;52783;50.502;8.190;2023-04-06T12:33:40;16.60;;;8.23;;
66012;SDS011;52783;50.502;8.190;2023-04-06T12:36:11;10.50;;;5.82;;
66012;SDS011;52783;50.502;8.190;2023-04-06T12:38:37;13.63;;;6.95;;
66012;SDS011;52783;50.502;8.190;2023-04-06T12:41:04;10.45;;;5.53;;
66012;SDS011;52783;50.502;8.190;2023-04-06T12:43:30;12.32;;;6.10;;
66012;SDS011;52783;50.502;8.190;2023-04-06T12:45:56;9.55;;;5.68;;
66012;SDS011;52783;50.502;8.190;2023-04-06T12:48:21;11.00;;;6.35;;
66012;SDS011;52783;50.502;8.190;2023-04-06T12:50:53;13.55;;;6.40;;
66012;SDS011;52783;50.502;8.190;2023-04-06T12:53:20;12.80;;;6.25;;
66012;SDS011;52783;50.502;8.190;2023-04-06T12:55:46;17.02;;;6.13;;
66012;SDS011;52783;50.502;8.190;2023-04-06T12:58:11;10.32;;;5.75;;
66012;SDS011;52783;50.502;8.190;2023-04-06T13:00:37;12.02;;;6.00;;
66012;SDS011;52783;50.502;8.190;2023-04-06T13:03:02;9.38;;;5.65;;
66012;SDS011;52783;50.502;8.190;2023-04-06T13:05:27;9.43;;;5.45;;
66012;SDS011;52783;50.502;8.190;2023-04-06T13:07:53;12.20;;;6.00;;
66012;SDS011;52783;50.502;8.190;2023-04-06T13:10:18;11.73;;;6.50;;
66012;SDS011;52783;50.502;8.190;2023-04-06T13:12:44;14.60;;;7.35;;
66012;SDS011;52783;50.502;8.190;2023-04-06T13:15:10;15.15;;;6.93;;
66012;SDS011;52783;50.502;8.190;2023-04-06T13:17:35;11.48;;;6.07;;
66012;SDS011;52783;50.502;8.190;2023-04-06T13:20:01;9.00;;;5.10;;
66012;SDS011;52783;50.502;8.190;2023-04-06T13:22:28;8.40;;;5.07;;
66012;SDS011;52783;50.502;8.190;2023-04-06T13:24:54;11.02;;;5.80;;
66012;SDS011;52783;50.502;8.190;2023-04-06T13:27:19;9.18;;;5.30;;
66012;SDS011;52783;50.502;8.190;2023-04-06T13:29:45;10.63;;;5.78;;
66012;SDS011;52783;50.502;8.190;2023-04-06T13:32:10;13.25;;;5.25;;
66012;SDS011;52783;50.502;8.190;2023-04-06T13:34:36;11.50;;;6.07;;
66012;SDS011;52783;50.502;8.190;2023-04-06T13:37:01;8.75;;;5.03;;
66012;SDS011;52783;50.502;8.190;2023-04-06T13:39:27;12.00;;;5.93;;
66012;SDS011;52783;50.502;8.190;2023-04-06T13:41:53;8.10;;;5.30;;
66012;SDS011;52783;50.502;8.190;2023-04-06T13:44:21;11.48;;;5.18;;
66012;SDS011;52783;50.502;8.190;2023-04-06T13:46:46;11.35;;;5.63;;
66012;SDS011;52783;50.502;8.190;2023-04-06T13:49:12;9.93;;;5.30;;
66012;SDS011;52783;50.502;8.190;2023-04-06T13:51:38;10.60;;;6.03;;
66012;SDS011;52783;50.502;8.190;2023-04-06T13:54:04;9.10;;;5.30;;
66012;SDS011;52783;50.502;8.190;2023-04-06T13:56:30;9.80;;;5.28;;
66012;SDS011;52783;50.502;8.190;2023-04-06T13:58:55;8.30;;;5.38;;
66012;SDS011;52783;50.502;8.190;2023-04-06T14:01:21;8.32;;;5.28;;
66012;SDS011;52783;50.502;8.190;2023-04-06T14:03:48;18.52;;;5.70;;
66012;SDS011;52783;50.502;8.190;2023-04-06T14:06:14;12.07;;;5.57;;
66012;SDS011;52783;50.502;8.190;2023-04-06T14:08:39;10.68;;;5.97;;
66012;SDS011;52783;50.502;8.190;2023-04-06T14:11:06;9.25;;;5.25;;
66012;SDS011;52783;50.502;8.190;2023-04-06T14:13:36;14.15;;;5.90;;
66012;SDS011;52783;50.502;8.190;2023-04-06T14:16:02;9.85;;;5.18;;
66012;SDS011;52783;50.502;8.190;2023-04-06T14:18:27;12.02;;;5.63;;
66012;SDS011;52783;50.502;8.190;2023-04-06T14:20:55;10.95;;;5.45;;
66012;SDS011;52783;50.502;8.190;2023-04-06T14:23:22;7.30;;;4.95;;
66012;SDS011;52783;50.502;8.190;2023-04-06T14:25:50;8.93;;;5.00;;
66012;SDS011;52783;50.502;8.190;2023-04-06T14:28:16;8.48;;;5.28;;
66012;SDS011;52783;50.502;8.190;2023-04-06T14:30:42;10.77;;;5.45;;
66012;SDS011;52783;50.502;8.190;2023-04-06T14:33:08;9.27;;;4.90;;
66012;SDS011;52783;50.502;8.190;2023-04-06T14:35:33;9.82;;;5.22;;
66012;SDS011;52783;50.502;8.190;2023-04-06T14:38:02;11.20;;;5.57;;
66012;SDS011;52783;50.502;8.190;2023-04-06T14:40:27;9.32;;;4.95;;
66012;SDS011;52783;50.502;8.190;2023-04-06T14:42:53;8.77;;;4.93;;
66012;SDS011;52783;50.502;8.190;2023-04-06T14:45:20;11.55;;;4.00;;